createdAt,value
2018-11-01T16:40:10.467Z,8.85
2018-11-01T16:41:09.751Z,8.78
2018-11-01T16:42:09.696Z,8.68
2018-11-01T16:43:10.627Z,8.68
2018-11-01T16:44:09.436Z,8.63
2018-11-01T16:45:09.356Z,8.59
2018-11-01T16:46:09.280Z,8.60
2018-11-01T16:47:09.246Z,8.55
2018-11-01T16:48:09.260Z,8.53
2018-11-01T16:49:09.258Z,8.55
2018-11-01T16:50:09.253Z,8.47
2018-11-01T16:51:09.329Z,8.44
2018-11-01T16:52:09.197Z,8.50
2018-11-01T16:53:09.177Z,8.42
2018-11-01T16:54:09.168Z,8.39
2018-11-01T16:55:09.192Z,8.31
2018-11-01T16:56:09.155Z,8.31
2018-11-01T16:57:09.141Z,8.34
2018-11-01T16:58:09.162Z,8.26
2018-11-01T16:59:09.113Z,8.21
2018-11-01T17:00:09.132Z,8.28
2018-11-01T17:01:09.182Z,8.23
2018-11-01T17:02:09.086Z,8.28
2018-11-01T17:03:09.064Z,8.16
2018-11-01T17:04:09.050Z,8.24
2018-11-01T17:05:09.223Z,8.21
2018-11-01T17:06:09.027Z,8.24
2018-11-01T17:07:09.021Z,8.13
2018-11-01T17:08:09.048Z,8.23
2018-11-01T17:09:09.008Z,8.14
2018-11-01T17:10:09.035Z,8.17
2018-11-01T17:11:09.014Z,8.16
2018-11-01T17:12:09.014Z,8.12
2018-11-01T17:13:08.947Z,8.13
2018-11-01T17:14:09.008Z,8.20
2018-11-01T17:15:08.958Z,8.19
2018-11-01T17:16:08.959Z,8.13
2018-11-01T17:17:08.972Z,8.20
2018-11-01T17:18:08.951Z,8.10
2018-11-01T17:19:08.883Z,8.14
2018-11-01T17:20:08.880Z,8.16
2018-11-01T17:21:08.896Z,8.16
2018-11-01T17:22:08.858Z,8.16
2018-11-01T17:23:08.915Z,8.20
2018-11-01T17:24:08.868Z,8.29
2018-11-01T17:25:08.894Z,8.20
2018-11-01T17:26:08.853Z,8.32
2018-11-01T17:27:08.805Z,8.32
2018-11-01T17:28:08.781Z,8.35
2018-11-01T17:29:08.807Z,8.29
2018-11-01T17:30:08.752Z,8.34
2018-11-01T17:31:08.759Z,8.29
2018-11-01T17:32:08.800Z,8.32
2018-11-01T17:33:08.717Z,8.31
2018-11-01T17:34:08.799Z,8.29
2018-11-01T17:35:08.779Z,8.31
2018-11-01T17:36:08.709Z,8.26
2018-11-01T17:37:08.722Z,8.32
2018-11-01T17:38:08.704Z,8.28
2018-11-01T17:39:08.675Z,8.31
2018-11-01T17:40:08.749Z,8.21
2018-11-01T17:41:08.670Z,8.20
2018-11-01T17:42:08.646Z,8.24
2018-11-01T17:43:08.663Z,8.24
2018-11-01T17:44:08.664Z,8.19
2018-11-01T17:45:08.643Z,8.10
2018-11-01T17:46:08.687Z,8.14
2018-11-01T17:47:08.577Z,8.13
2018-11-01T17:48:08.556Z,8.14
2018-11-01T17:49:08.591Z,8.06
2018-11-01T17:50:08.597Z,8.09
2018-11-01T17:51:08.539Z,8.10
2018-11-01T17:52:08.571Z,8.04
2018-11-01T17:53:08.522Z,8.04
2018-11-01T17:54:08.511Z,8.10
2018-11-01T17:55:08.494Z,8.09
2018-11-01T17:56:08.519Z,8.13
2018-11-01T17:57:08.447Z,8.12
2018-11-01T17:58:08.462Z,8.13
2018-11-01T17:59:08.429Z,8.13
2018-11-01T18:00:08.455Z,8.12
2018-11-01T18:01:08.448Z,8.14
2018-11-01T18:02:08.537Z,8.12
2018-11-01T18:03:08.425Z,8.13
2018-11-01T18:04:08.364Z,8.17
2018-11-01T18:05:08.683Z,8.21
2018-11-01T18:06:08.406Z,8.16
2018-11-01T18:07:08.329Z,8.09
2018-11-01T18:08:08.353Z,8.12
2018-11-01T18:09:08.471Z,8.12
2018-11-01T18:10:08.346Z,8.10
2018-11-01T18:11:08.290Z,8.14
2018-11-01T18:12:08.335Z,8.06
2018-11-01T18:13:08.261Z,8.13
2018-11-01T18:14:08.281Z,8.12
2018-11-01T18:15:08.246Z,8.17
2018-11-01T18:16:08.340Z,8.06
2018-11-01T18:17:08.218Z,8.09
2018-11-01T18:18:08.239Z,8.09
2018-11-01T18:19:08.280Z,8.01
2018-11-01T18:20:08.198Z,8.09
2018-11-01T18:21:08.217Z,8.12
2018-11-01T18:22:08.163Z,8.01
2018-11-01T18:23:08.202Z,8.04
2018-11-01T18:24:08.149Z,8.09
2018-11-01T18:25:08.139Z,7.98
2018-11-01T18:26:08.216Z,8.06
2018-11-01T18:27:08.119Z,8.13
2018-11-01T18:28:08.090Z,8.13
2018-11-01T18:29:08.083Z,8.14
2018-11-01T18:30:08.139Z,8.23
2018-11-01T18:31:08.183Z,8.21
2018-11-01T18:32:08.213Z,8.16
2018-11-01T18:33:08.164Z,8.28
2018-11-01T18:34:08.022Z,8.17
2018-11-01T18:35:08.243Z,8.26
2018-11-01T18:36:08.038Z,8.23
2018-11-01T18:37:08.003Z,8.24
2018-11-01T18:38:08.029Z,8.31
2018-11-01T18:39:08.086Z,8.31
2018-11-01T18:40:07.960Z,8.31
2018-11-01T18:41:07.973Z,8.38
2018-11-01T18:42:07.979Z,8.52
2018-11-01T18:43:07.996Z,8.53
2018-11-01T18:44:07.932Z,8.59
2018-11-01T18:45:07.898Z,8.70
2018-11-01T18:46:07.900Z,8.77
2018-11-01T18:47:07.902Z,8.70
2018-11-01T18:48:07.944Z,8.77
2018-11-01T18:49:07.987Z,8.77
2018-11-01T18:50:07.861Z,8.88
2018-11-01T18:51:07.828Z,8.74
2018-11-01T18:52:07.931Z,8.81
2018-11-01T18:53:07.816Z,8.81
2018-11-01T18:54:07.862Z,8.88
2018-11-01T18:55:07.825Z,8.95
2018-11-01T18:56:07.819Z,8.86
2018-11-01T18:57:07.762Z,8.88
2018-11-01T18:58:07.764Z,8.88
2018-11-01T18:59:07.795Z,8.92
2018-11-01T19:00:07.759Z,8.95
2018-11-01T19:01:07.766Z,8.98
2018-11-01T19:02:07.740Z,8.92
2018-11-01T19:03:07.720Z,9.01
2018-11-01T19:04:07.707Z,9.01
2018-11-01T19:05:07.852Z,8.99
2018-11-01T19:06:07.676Z,9.04
2018-11-01T19:07:07.768Z,9.03
2018-11-01T19:08:07.682Z,9.04
2018-11-01T19:09:07.623Z,8.99
2018-11-01T19:10:07.690Z,9.01
2018-11-01T19:11:07.749Z,8.92
2018-11-01T19:12:07.623Z,8.86
2018-11-01T19:13:07.594Z,8.89
2018-11-01T19:14:07.702Z,8.85
2018-11-01T19:15:07.572Z,8.89
2018-11-01T19:16:07.567Z,8.98
2018-11-01T19:17:07.632Z,9.03
2018-11-01T19:18:07.537Z,9.12
2018-11-01T19:19:07.579Z,9.06
2018-11-01T19:20:07.514Z,9.12
2018-11-01T19:21:07.577Z,9.14
2018-11-01T19:22:07.490Z,9.15
2018-11-01T19:23:07.524Z,9.19
2018-11-01T19:24:07.490Z,9.19
2018-11-01T19:25:07.515Z,9.24
2018-11-01T19:26:07.485Z,9.22
2018-11-01T19:27:07.630Z,9.19
2018-11-01T19:28:07.515Z,9.19
2018-11-01T19:29:07.418Z,9.22
2018-11-01T19:30:07.388Z,9.22
2018-11-01T19:31:07.416Z,9.32
2018-11-01T19:32:07.370Z,9.29
2018-11-01T19:33:07.415Z,9.23
2018-11-01T19:34:07.539Z,9.24
2018-11-01T19:35:07.381Z,9.26
2018-11-01T19:36:07.343Z,9.23
2018-11-01T19:37:07.324Z,9.24
2018-11-01T19:38:07.305Z,9.22
2018-11-01T19:39:07.324Z,9.30
2018-11-01T19:40:07.474Z,9.24
2018-11-01T19:41:07.269Z,9.12
2018-11-01T19:42:07.318Z,9.26
2018-11-01T19:43:07.240Z,9.16
2018-11-01T19:44:07.300Z,9.22
2018-11-01T19:45:07.256Z,9.16
2018-11-01T19:46:07.231Z,9.24
2018-11-01T19:47:07.216Z,9.22
2018-11-01T19:48:07.255Z,9.24
2018-11-01T19:49:07.190Z,9.26
2018-11-01T19:50:07.177Z,9.16
2018-11-01T19:51:07.225Z,9.12
2018-11-01T19:52:07.232Z,9.16
2018-11-01T19:53:07.131Z,9.27
2018-11-01T19:54:07.167Z,9.18
2018-11-01T19:55:07.108Z,9.24
2018-11-01T19:56:07.092Z,9.18
2018-11-01T19:57:07.095Z,9.16
2018-11-01T19:58:07.147Z,9.18
2018-11-01T19:59:07.077Z,9.23
2018-11-01T20:00:07.066Z,9.27
2018-11-01T20:01:07.110Z,9.19
2018-11-01T20:02:07.053Z,9.14
2018-11-01T20:03:07.041Z,9.26
2018-11-01T20:04:07.150Z,9.16
2018-11-01T20:05:07.249Z,9.22
2018-11-01T20:06:06.979Z,9.22
2018-11-01T20:07:06.990Z,9.19
2018-11-01T20:08:06.963Z,9.27
2018-11-01T20:09:06.946Z,9.15
2018-11-01T20:10:06.978Z,9.23
2018-11-01T20:11:06.992Z,9.23
2018-11-01T20:12:06.920Z,9.24
2018-11-01T20:13:06.904Z,9.24
2018-11-01T20:14:06.893Z,9.32
2018-11-01T20:15:06.885Z,9.29
2018-11-01T20:16:06.878Z,9.26
2018-11-01T20:17:06.904Z,9.30
2018-11-01T20:18:06.864Z,9.33
2018-11-01T20:19:06.987Z,9.34
2018-11-01T20:20:06.820Z,9.29
2018-11-01T20:21:06.853Z,9.23
2018-11-01T20:22:06.808Z,9.23
2018-11-01T20:23:06.789Z,9.22
2018-11-01T20:24:06.780Z,9.29
2018-11-01T20:25:06.777Z,9.27
2018-11-01T20:26:06.756Z,9.30
2018-11-01T20:27:06.796Z,9.24
2018-11-01T20:28:06.732Z,9.27
2018-11-01T20:29:06.726Z,9.27
2018-11-01T20:30:06.736Z,9.27
2018-11-01T20:31:06.737Z,9.37
2018-11-01T20:32:06.722Z,9.30
2018-11-01T20:33:06.710Z,9.37
2018-11-01T20:34:06.678Z,9.36
2018-11-01T20:35:06.813Z,9.36
2018-11-01T20:36:06.685Z,9.34
2018-11-01T20:37:06.628Z,9.37
2018-11-01T20:38:06.736Z,9.37
2018-11-01T20:39:06.683Z,9.48
2018-11-01T20:40:06.621Z,9.42
2018-11-01T20:41:06.576Z,9.48
2018-11-01T20:42:06.572Z,9.44
2018-11-01T20:43:06.559Z,9.45
2018-11-01T20:44:06.583Z,9.47
2018-11-01T20:45:06.575Z,9.51
2018-11-01T20:46:06.527Z,9.47
2018-11-01T20:47:06.510Z,9.52
2018-11-01T20:48:06.506Z,9.54
2018-11-01T20:49:06.496Z,9.54
2018-11-01T20:50:06.556Z,9.55
2018-11-01T20:51:06.508Z,9.54
2018-11-01T20:52:06.501Z,9.52
2018-11-01T20:53:06.506Z,9.51
2018-11-01T20:54:06.435Z,9.54
2018-11-01T20:55:06.421Z,9.54
2018-11-01T20:56:06.431Z,9.50
2018-11-01T20:57:06.487Z,9.48
2018-11-01T20:58:06.400Z,9.54
2018-11-01T20:59:06.419Z,9.54
2018-11-01T21:00:06.366Z,9.55
2018-11-01T21:01:06.353Z,9.51
2018-11-01T21:02:06.353Z,9.54
2018-11-01T21:03:06.337Z,9.52
2018-11-01T21:04:06.328Z,9.54
2018-11-01T21:05:06.480Z,9.62
2018-11-01T21:06:06.298Z,9.65
2018-11-01T21:07:06.294Z,9.63
2018-11-01T21:08:06.318Z,9.63
2018-11-01T21:09:06.265Z,9.66
2018-11-01T21:10:06.255Z,9.63
2018-11-01T21:11:06.307Z,9.60
2018-11-01T21:12:06.228Z,9.60
2018-11-01T21:13:06.221Z,9.66
2018-11-01T21:14:06.240Z,9.63
2018-11-01T21:15:06.192Z,9.63
2018-11-01T21:16:06.229Z,9.59
2018-11-01T21:17:06.273Z,9.72
2018-11-01T21:18:06.159Z,9.66
2018-11-01T21:19:06.149Z,9.57
2018-11-01T21:20:06.244Z,9.66
2018-11-01T21:21:06.125Z,9.62
2018-11-01T21:22:06.210Z,9.57
2018-11-01T21:23:06.103Z,9.55
2018-11-01T21:24:06.094Z,9.63
2018-11-01T21:25:06.088Z,9.63
2018-11-01T21:26:06.121Z,9.63
2018-11-01T21:27:06.111Z,9.63
2018-11-01T21:28:06.048Z,9.57
2018-11-01T21:29:06.050Z,9.67
2018-11-01T21:30:06.091Z,9.66
2018-11-01T21:31:06.016Z,9.65
2018-11-01T21:32:06.010Z,9.66
2018-11-01T21:33:05.994Z,9.69
2018-11-01T21:34:05.986Z,9.70
2018-11-01T21:35:06.334Z,9.70
2018-11-01T21:36:06.295Z,9.77
2018-11-01T21:37:05.949Z,9.77
2018-11-01T21:38:05.969Z,9.72
2018-11-01T21:39:05.964Z,9.70
2018-11-01T21:40:05.917Z,9.75
2018-11-01T21:41:05.941Z,9.67
2018-11-01T21:42:05.891Z,9.69
2018-11-01T21:43:05.915Z,9.72
2018-11-01T21:44:05.975Z,9.70
2018-11-01T21:45:05.852Z,9.77
2018-11-01T21:46:05.856Z,9.72
2018-11-01T21:47:05.831Z,9.77
2018-11-01T21:48:05.823Z,9.81
2018-11-01T21:49:05.863Z,9.77
2018-11-01T21:50:05.838Z,9.81
2018-11-01T21:51:05.795Z,9.84
2018-11-01T21:52:05.776Z,9.80
2018-11-01T21:53:05.864Z,9.77
2018-11-01T21:54:05.803Z,9.83
2018-11-01T21:55:05.780Z,9.87
2018-11-01T21:56:05.745Z,9.72
2018-11-01T21:57:05.724Z,9.67
2018-11-01T21:58:05.764Z,9.70
2018-11-01T21:59:05.695Z,9.59
2018-11-01T22:00:05.685Z,9.62
2018-11-01T22:01:05.673Z,9.63
2018-11-01T22:02:05.673Z,9.60
2018-11-01T22:03:05.711Z,9.52
2018-11-01T22:04:05.644Z,9.59
2018-11-01T22:05:05.828Z,9.51
2018-11-01T22:06:05.634Z,9.55
2018-11-01T22:07:05.606Z,9.47
2018-11-01T22:08:05.604Z,9.54
2018-11-01T22:09:05.640Z,9.45
2018-11-01T22:10:05.596Z,9.47
2018-11-01T22:11:05.559Z,9.42
2018-11-01T22:12:05.548Z,9.48
2018-11-01T22:13:05.572Z,9.44
2018-11-01T22:14:05.543Z,9.36
2018-11-01T22:15:05.572Z,9.42
2018-11-01T22:16:05.507Z,9.44
2018-11-01T22:17:05.493Z,9.40
2018-11-01T22:18:05.487Z,9.40
2018-11-01T22:19:05.473Z,9.33
2018-11-01T22:20:05.461Z,9.32
2018-11-01T22:21:05.512Z,9.27
2018-11-01T22:22:05.435Z,9.29
2018-11-01T22:23:05.426Z,9.29
2018-11-01T22:24:05.469Z,9.29
2018-11-01T22:25:05.413Z,9.22
2018-11-01T22:26:05.392Z,9.30
2018-11-01T22:27:05.392Z,9.24
2018-11-01T22:28:05.382Z,9.32
2018-11-01T22:29:05.356Z,9.36
2018-11-01T22:30:05.403Z,9.19
2018-11-01T22:31:05.331Z,9.22
2018-11-01T22:32:05.366Z,9.30
2018-11-01T22:33:05.323Z,9.26
2018-11-01T22:34:05.315Z,9.22
2018-11-01T22:35:05.403Z,9.30
2018-11-01T22:36:05.316Z,9.37
2018-11-01T22:37:05.269Z,9.29
2018-11-01T22:38:05.297Z,9.19
2018-11-01T22:39:05.248Z,9.34
2018-11-01T22:40:05.322Z,9.34
2018-11-01T22:41:05.227Z,9.36
2018-11-01T22:42:05.215Z,9.34
2018-11-01T22:43:05.199Z,9.42
2018-11-01T22:44:05.187Z,9.34
2018-11-01T22:45:05.171Z,9.41
2018-11-01T22:46:05.235Z,9.41
2018-11-01T22:47:05.152Z,9.32
2018-11-01T22:48:05.139Z,9.26
2018-11-01T22:49:05.129Z,9.37
2018-11-01T22:50:05.124Z,9.24
2018-11-01T22:51:05.103Z,9.29
2018-11-01T22:52:05.141Z,9.33
2018-11-01T22:53:05.098Z,9.32
2018-11-01T22:54:05.073Z,9.33
2018-11-01T22:55:05.059Z,9.27
2018-11-01T22:56:05.055Z,9.29
2018-11-01T22:57:05.037Z,9.24
2018-11-01T22:58:05.067Z,9.27
2018-11-01T22:59:05.063Z,9.27
2018-11-01T23:00:05.082Z,9.29
2018-11-01T23:01:04.997Z,9.18
2018-11-01T23:02:04.984Z,9.26
2018-11-01T23:03:04.965Z,9.27
2018-11-01T23:04:04.960Z,9.29
2018-11-01T23:05:04.989Z,9.23
2018-11-01T23:06:04.973Z,9.15
2018-11-01T23:07:04.927Z,9.19
2018-11-01T23:08:04.907Z,9.23
2018-11-01T23:09:04.909Z,9.27
2018-11-01T23:10:04.906Z,9.30
2018-11-01T23:11:04.906Z,9.26
2018-11-01T23:12:04.904Z,9.22
2018-11-01T23:13:04.857Z,9.24
2018-11-01T23:14:04.889Z,9.29
2018-11-01T23:15:04.831Z,9.24
2018-11-01T23:16:04.884Z,9.24
2018-11-01T23:17:04.864Z,9.24
2018-11-01T23:18:04.802Z,9.36
2018-11-01T23:19:04.804Z,9.32
2018-11-01T23:20:04.791Z,9.30
2018-11-01T23:21:04.761Z,9.24
2018-11-01T23:22:04.794Z,9.30
2018-11-01T23:23:04.737Z,9.44
2018-11-01T23:24:04.731Z,9.42
2018-11-01T23:25:04.729Z,9.41
2018-11-01T23:26:04.716Z,9.48
2018-11-01T23:27:04.745Z,9.50
2018-11-01T23:28:04.684Z,9.50
2018-11-01T23:29:04.671Z,9.59
2018-11-01T23:30:04.663Z,9.65
2018-11-01T23:31:04.665Z,9.63
2018-11-01T23:32:04.640Z,9.66
2018-11-01T23:33:04.762Z,9.65
2018-11-01T23:34:04.645Z,9.69
2018-11-01T23:35:04.855Z,9.75
2018-11-01T23:36:04.591Z,9.75
2018-11-01T23:37:04.726Z,9.73
2018-11-01T23:38:04.568Z,9.72
2018-11-01T23:39:04.604Z,9.69
2018-11-01T23:40:04.546Z,9.75
2018-11-01T23:41:04.536Z,9.80
2018-11-01T23:42:04.525Z,9.80
2018-11-01T23:43:04.551Z,9.85
2018-11-01T23:44:04.549Z,9.84
2018-11-01T23:45:04.492Z,9.84
2018-11-01T23:46:04.517Z,9.91
2018-11-01T23:47:04.468Z,9.93
2018-11-01T23:48:04.457Z,9.91
2018-11-01T23:49:04.486Z,9.90
2018-11-01T23:50:04.453Z,9.80
2018-11-01T23:51:04.479Z,9.88
2018-11-01T23:52:04.421Z,9.72
2018-11-01T23:53:04.398Z,9.75
2018-11-01T23:54:04.422Z,9.77
2018-11-01T23:55:04.380Z,9.70
2018-11-01T23:56:04.367Z,9.77
2018-11-01T23:57:04.444Z,9.77
2018-11-01T23:58:04.344Z,9.67
2018-11-01T23:59:04.381Z,9.63
